Time,TemperatureF,DewpointF,PressureIn,WindDirection,WindDirectionDegrees,WindSpeedMPH,WindSpeedGustMPH,Humidity,HourlyPrecipIn,Conditions,Clouds,dailyrainin,SoftwareType,DateUTC
2013-04-22 00:00:00,38.7,22.1,-100.00,North,-999,0.0,0.0,51,0.00,,,-99.99,FreeWX-Wi 1.01,2013-04-22 07:00:00,
2013-04-22 00:05:00,38.5,21.9,-100.00,North,-999,0.0,0.0,51,0.00,,,-99.99,FreeWX-Wi 1.01,2013-04-22 07:05:00,
2013-04-22 00:10:00,38.5,21.9,-100.00,North,-999,0.0,0.0,51,0.00,,,-99.99,FreeWX-Wi 1.01,2013-04-22 07:10:00,
2013-04-22 00:15:00,38.3,22.3,-100.00,North,-999,0.0,0.0,52,0.00,,,-99.99,FreeWX-Wi 1.01,2013-04-22 07:15:00,
2013-04-22 00:20:00,38.5,23.4,-100.00,North,-999,0.0,0.0,54,0.00,,,-99.99,FreeWX-Wi 1.01,2013-04-22 07:20:00,
2013-04-22 00:25:00,38.7,23.9,-100.00,North,-999,0.0,0.0,55,0.00,,,-99.99,FreeWX-Wi 1.01,2013-04-22 07:25:00,
2013-04-22 00:30:00,38.5,23.7,-100.00,North,-999,0.0,0.0,55,0.00,,,-99.99,FreeWX-Wi 1.01,2013-04-22 07:30:00,
2013-04-22 00:35:00,38.7,23.9,-100.00,North,-999,0.0,0.0,55,0.00,,,-99.99,FreeWX-Wi 1.01,2013-04-22 07:35:00,
2013-04-22 00:41:00,38.7,23.5,-100.00,North,-999,0.0,0.0,54,0.00,,,-99.99,FreeWX-Wi 1.01,2013-04-22 07:41:00,
2013-04-22 00:46:00,38.3,22.6,-100.00,North,-999,0.0,0.0,53,0.00,,,-99.99,FreeWX-Wi 1.01,2013-04-22 07:46:00,
2013-04-22 00:51:00,38.1,22.5,-100.00,North,-999,0.0,0.0,53,0.00,,,-99.99,FreeWX-Wi 1.01,2013-04-22 07:51:00,
2013-04-22 00:56:00,37.9,22.3,-100.00,North,-999,0.0,0.0,53,0.00,,,-99.99,FreeWX-Wi 1.01,2013-04-22 07:56:00,
2013-04-22 01:01:00,37.9,22.3,-100.00,North,-999,0.0,0.0,53,0.00,,,-99.99,FreeWX-Wi 1.01,2013-04-22 08:01:00,
2013-04-22 01:06:00,37.6,22.5,-100.00,North,-999,0.0,0.0,54,0.00,,,-99.99,FreeWX-Wi 1.01,2013-04-22 08:06:00,
2013-04-22 01:11:00,37.6,22.1,-100.00,North,-999,0.0,0.0,53,0.00,,,-99.99,FreeWX-Wi 1.01,2013-04-22 08:11:00,
2013-04-22 01:16:00,37.4,22.3,-100.00,North,-999,0.0,0.0,54,0.00,,,-99.99,FreeWX-Wi 1.01,2013-04-22 08:16:00,
2013-04-22 01:21:00,37.4,22.3,-100.00,North,-999,0.0,0.0,54,0.00,,,-99.99,FreeWX-Wi 1.01,2013-04-22 08:21:00,
2013-04-22 01:26:00,37.4,22.3,-100.00,North,-999,0.0,0.0,54,0.00,,,-99.99,FreeWX-Wi 1.01,2013-04-22 08:26:00,
2013-04-22 01:31:00,37.0,22.5,-100.00,North,-999,0.0,0.0,55,0.00,,,-99.99,FreeWX-Wi 1.01,2013-04-22 08:31:00,
2013-04-22 01:36:00,36.9,22.3,-100.00,North,-999,0.0,0.0,55,0.00,,,-99.99,FreeWX-Wi 1.01,2013-04-22 08:36:00,
2013-04-22 01:41:00,36.9,22.3,-100.00,North,-999,0.0,0.0,55,0.00,,,-99.99,FreeWX-Wi 1.01,2013-04-22 08:41:00,
2013-04-22 01:46:00,36.9,22.3,-100.00,North,-999,0.0,0.0,55,0.00,,,-99.99,FreeWX-Wi 1.01,2013-04-22 08:46:00,
2013-04-22 01:51:00,36.7,22.5,-100.00,North,-999,0.0,0.0,56,0.00,,,-99.99,FreeWX-Wi 1.01,2013-04-22 08:51:00,
2013-04-22 01:56:00,36.9,23.0,-100.00,North,-999,0.0,0.0,57,0.00,,,-99.99,FreeWX-Wi 1.01,2013-04-22 08:56:00,
2013-04-22 02:01:00,36.7,22.5,-100.00,North,-999,0.0,0.0,56,0.00,,,-99.99,FreeWX-Wi 1.01,2013-04-22 09:01:00,
2013-04-22 02:06:00,36.7,22.5,-100.00,North,-999,0.0,0.0,56,0.00,,,-99.99,FreeWX-Wi 1.01,2013-04-22 09:06:00,
2013-04-22 02:11:00,36.3,22.1,-100.00,North,-999,0.0,0.0,56,0.00,,,-99.99,FreeWX-Wi 1.01,2013-04-22 09:11:00,
2013-04-22 02:16:00,36.1,22.5,-100.00,North,-999,0.0,0.0,57,0.00,,,-99.99,FreeWX-Wi 1.01,2013-04-22 09:16:00,
2013-04-22 02:21:00,36.1,22.5,-100.00,North,-999,0.0,0.0,57,0.00,,,-99.99,FreeWX-Wi 1.01,2013-04-22 09:21:00,
2013-04-22 02:26:00,35.8,22.1,-100.00,North,-999,0.0,0.0,57,0.00,,,-99.99,FreeWX-Wi 1.01,2013-04-22 09:26:00,
2013-04-22 02:31:00,35.8,22.5,-100.00,North,-999,0.0,0.0,58,0.00,,,-99.99,FreeWX-Wi 1.01,2013-04-22 09:31:00,
2013-04-22 02:36:00,36.0,22.6,-100.00,North,-999,0.0,0.0,58,0.00,,,-99.99,FreeWX-Wi 1.01,2013-04-22 09:36:00,
2013-04-22 02:41:00,35.8,22.8,-100.00,North,-999,0.0,0.0,59,0.00,,,-99.99,FreeWX-Wi 1.01,2013-04-22 09:41:00,
2013-04-22 02:46:00,35.6,22.3,-100.00,North,-999,0.0,0.0,58,0.00,,,-99.99,FreeWX-Wi 1.01,2013-04-22 09:46:00,
2013-04-22 02:51:00,35.6,21.9,-100.00,North,-999,0.0,0.0,57,0.00,,,-99.99,FreeWX-Wi 1.01,2013-04-22 09:51:00,
2013-04-22 02:56:00,35.4,22.1,-100.00,North,-999,0.0,0.0,58,0.00,,,-99.99,FreeWX-Wi 1.01,2013-04-22 09:56:00,
2013-04-22 03:01:00,35.4,22.5,-100.00,North,-999,0.0,0.0,59,0.00,,,-99.99,FreeWX-Wi 1.01,2013-04-22 10:01:00,
2013-04-22 03:06:00,35.2,22.8,-100.00,North,-999,0.0,0.0,60,0.00,,,-99.99,FreeWX-Wi 1.01,2013-04-22 10:06:00,
2013-04-22 03:11:00,35.1,22.3,-100.00,North,-999,0.0,0.0,59,0.00,,,-99.99,FreeWX-Wi 1.01,2013-04-22 10:11:00,
2013-04-22 03:16:00,34.9,22.1,-100.00,North,-999,0.0,0.0,59,0.00,,,-99.99,FreeWX-Wi 1.01,2013-04-22 10:16:00,
2013-04-22 03:21:00,34.9,22.1,-100.00,North,-999,0.0,0.0,59,0.00,,,-99.99,FreeWX-Wi 1.01,2013-04-22 10:21:00,
2013-04-22 03:26:00,34.9,21.6,-100.00,North,-999,0.0,0.0,58,0.00,,,-99.99,FreeWX-Wi 1.01,2013-04-22 10:26:00,
2013-04-22 03:31:00,34.9,21.6,-100.00,North,-999,0.0,0.0,58,0.00,,,-99.99,FreeWX-Wi 1.01,2013-04-22 10:31:00,
2013-04-22 03:36:00,34.7,21.9,-100.00,North,-999,0.0,0.0,59,0.00,,,-99.99,FreeWX-Wi 1.01,2013-04-22 10:36:00,
2013-04-22 03:41:00,34.7,22.6,-100.00,North,-999,0.0,0.0,61,0.00,,,-99.99,FreeWX-Wi 1.01,2013-04-22 10:41:00,
2013-04-22 03:46:00,34.5,22.5,-100.00,North,-999,0.0,0.0,61,0.00,,,-99.99,FreeWX-Wi 1.01,2013-04-22 10:46:00,
2013-04-22 03:51:00,34.5,22.5,-100.00,North,-999,0.0,0.0,61,0.00,,,-99.99,FreeWX-Wi 1.01,2013-04-22 10:51:00,
2013-04-22 03:56:00,34.3,21.9,-100.00,North,-999,0.0,0.0,60,0.00,,,-99.99,FreeWX-Wi 1.01,2013-04-22 10:56:00,
2013-04-22 04:01:00,34.2,21.4,-100.00,North,-999,0.0,0.0,59,0.00,,,-99.99,FreeWX-Wi 1.01,2013-04-22 11:01:00,
2013-04-22 04:06:00,34.2,21.0,-100.00,North,-999,0.0,0.0,58,0.00,,,-99.99,FreeWX-Wi 1.01,2013-04-22 11:06:00,
2013-04-22 04:12:00,34.0,20.8,-100.00,North,-999,0.0,0.0,58,0.00,,,-99.99,FreeWX-Wi 1.01,2013-04-22 11:12:00,
2013-04-22 04:17:00,34.0,20.8,-100.00,North,-999,0.0,0.0,58,0.00,,,-99.99,FreeWX-Wi 1.01,2013-04-22 11:17:00,
2013-04-22 04:22:00,34.0,21.9,-100.00,North,-999,0.0,0.0,61,0.00,,,-99.99,FreeWX-Wi 1.01,2013-04-22 11:22:00,
2013-04-22 04:27:00,34.3,23.0,-100.00,North,-999,0.0,0.0,63,0.00,,,-99.99,FreeWX-Wi 1.01,2013-04-22 11:27:00,
2013-04-22 04:32:00,34.5,23.9,-100.00,North,-999,0.0,0.0,65,0.00,,,-99.99,FreeWX-Wi 1.01,2013-04-22 11:32:00,
2013-04-22 04:37:00,34.7,24.4,-100.00,North,-999,0.0,0.0,66,0.00,,,-99.99,FreeWX-Wi 1.01,2013-04-22 11:37:00,
2013-04-22 04:42:00,35.1,25.5,-100.00,North,-999,0.0,0.0,68,0.00,,,-99.99,FreeWX-Wi 1.01,2013-04-22 11:42:00,
2013-04-22 04:47:00,35.4,26.6,-100.00,North,-999,0.0,0.0,70,0.00,,,-99.99,FreeWX-Wi 1.01,2013-04-22 11:47:00,
2013-04-22 04:52:00,35.4,26.6,-100.00,North,-999,0.0,0.0,70,0.00,,,-99.99,FreeWX-Wi 1.01,2013-04-22 11:52:00,
2013-04-22 04:57:00,35.4,26.2,-100.00,North,-999,0.0,0.0,69,0.00,,,-99.99,FreeWX-Wi 1.01,2013-04-22 11:57:00,
2013-04-22 05:02:00,35.2,25.3,-100.00,North,-999,0.0,0.0,67,0.00,,,-99.99,FreeWX-Wi 1.01,2013-04-22 12:02:00,
2013-04-22 05:07:00,35.1,24.4,-100.00,North,-999,0.0,0.0,65,0.00,,,-99.99,FreeWX-Wi 1.01,2013-04-22 12:07:00,
2013-04-22 05:12:00,34.9,23.9,-100.00,North,-999,0.0,0.0,64,0.00,,,-99.99,FreeWX-Wi 1.01,2013-04-22 12:12:00,
2013-04-22 05:17:00,34.3,22.6,-100.00,North,-999,0.0,0.0,62,0.00,,,-99.99,FreeWX-Wi 1.01,2013-04-22 12:17:00,
2013-04-22 05:22:00,34.2,22.5,-100.00,North,-999,0.0,0.0,62,0.00,,,-99.99,FreeWX-Wi 1.01,2013-04-22 12:22:00,
2013-04-22 05:27:00,34.3,24.3,-100.00,North,-999,0.0,0.0,66,0.00,,,-99.99,FreeWX-Wi 1.01,2013-04-22 12:27:00,
2013-04-22 05:32:00,34.5,25.0,-100.00,North,-999,0.0,0.0,68,0.00,,,-99.99,FreeWX-Wi 1.01,2013-04-22 12:32:00,
2013-04-22 05:37:00,34.5,25.0,-100.00,North,-999,0.0,0.0,68,0.00,,,-99.99,FreeWX-Wi 1.01,2013-04-22 12:37:00,
2013-04-22 05:42:00,34.5,25.0,-100.00,North,-999,0.0,0.0,68,0.00,,,-99.99,FreeWX-Wi 1.01,2013-04-22 12:42:00,
2013-04-22 05:47:00,34.9,25.7,-100.00,North,-999,0.0,0.0,69,0.00,,,-99.99,FreeWX-Wi 1.01,2013-04-22 12:47:00,
2013-04-22 05:52:00,35.1,26.2,-100.00,North,-999,0.0,0.0,70,0.00,,,-99.99,FreeWX-Wi 1.01,2013-04-22 12:52:00,
2013-04-22 05:57:00,35.1,26.2,-100.00,North,-999,0.0,0.0,70,0.00,,,-99.99,FreeWX-Wi 1.01,2013-04-22 12:57:00,
2013-04-22 06:02:00,35.2,26.4,-100.00,North,-999,0.0,0.0,70,0.00,,,-99.99,FreeWX-Wi 1.01,2013-04-22 13:02:00,
2013-04-22 06:07:00,35.6,26.8,-100.00,North,-999,0.0,0.0,70,0.00,,,-99.99,FreeWX-Wi 1.01,2013-04-22 13:07:00,
2013-04-22 06:12:00,35.8,27.3,-100.00,North,-999,0.0,0.0,71,0.00,,,-99.99,FreeWX-Wi 1.01,2013-04-22 13:12:00,
2013-04-22 06:17:00,35.8,27.3,-100.00,North,-999,0.0,0.0,71,0.00,,,-99.99,FreeWX-Wi 1.01,2013-04-22 13:17:00,
2013-04-22 06:22:00,36.1,27.7,-100.00,North,-999,0.0,0.0,71,0.00,,,-99.99,FreeWX-Wi 1.01,2013-04-22 13:22:00,
2013-04-22 06:27:00,36.3,27.9,-100.00,North,-999,0.0,0.0,71,0.00,,,-99.99,FreeWX-Wi 1.01,2013-04-22 13:27:00,
2013-04-22 06:32:00,36.3,27.9,-100.00,North,-999,0.0,0.0,71,0.00,,,-99.99,FreeWX-Wi 1.01,2013-04-22 13:32:00,
2013-04-22 06:37:00,36.3,27.5,-100.00,North,-999,0.0,0.0,70,0.00,,,-99.99,FreeWX-Wi 1.01,2013-04-22 13:37:00,
2013-04-22 06:42:00,36.5,27.7,-100.00,North,-999,0.0,0.0,70,0.00,,,-99.99,FreeWX-Wi 1.01,2013-04-22 13:42:00,
2013-04-22 06:47:00,36.5,27.7,-100.00,North,-999,0.0,0.0,70,0.00,,,-99.99,FreeWX-Wi 1.01,2013-04-22 13:47:00,
2013-04-22 06:52:00,36.5,27.7,-100.00,North,-999,0.0,0.0,70,0.00,,,-99.99,FreeWX-Wi 1.01,2013-04-22 13:52:00,
2013-04-22 06:57:00,36.7,27.9,-100.00,North,-999,0.0,0.0,70,0.00,,,-99.99,FreeWX-Wi 1.01,2013-04-22 13:57:00,
2013-04-22 07:02:00,36.9,27.7,-100.00,North,-999,0.0,0.0,69,0.00,,,-99.99,FreeWX-Wi 1.01,2013-04-22 14:02:00,
2013-04-22 07:07:00,36.9,27.7,-100.00,North,-999,0.0,0.0,69,0.00,,,-99.99,FreeWX-Wi 1.01,2013-04-22 14:07:00,
2013-04-22 07:12:00,36.7,27.1,-100.00,North,-999,0.0,0.0,68,0.00,,,-99.99,FreeWX-Wi 1.01,2013-04-22 14:12:00,
2013-04-22 07:17:00,36.7,27.1,-100.00,North,-999,0.0,0.0,68,0.00,,,-99.99,FreeWX-Wi 1.01,2013-04-22 14:17:00,
2013-04-22 07:22:00,36.3,26.4,-100.00,North,-999,0.0,0.0,67,0.00,,,-99.99,FreeWX-Wi 1.01,2013-04-22 14:22:00,
2013-04-22 07:27:00,36.3,26.4,-100.00,North,-999,0.0,0.0,67,0.00,,,-99.99,FreeWX-Wi 1.01,2013-04-22 14:27:00,
2013-04-22 07:32:00,36.7,27.5,-100.00,North,-999,0.0,0.0,69,0.00,,,-99.99,FreeWX-Wi 1.01,2013-04-22 14:32:00,
2013-04-22 07:37:00,37.2,28.0,-100.00,North,-999,0.0,0.0,69,0.00,,,-99.99,FreeWX-Wi 1.01,2013-04-22 14:37:00,
2013-04-22 07:42:00,37.2,28.0,-100.00,North,-999,0.0,0.0,69,0.00,,,-99.99,FreeWX-Wi 1.01,2013-04-22 14:42:00,
2013-04-22 07:47:00,37.4,27.9,-100.00,North,-999,0.0,0.0,68,0.00,,,-99.99,FreeWX-Wi 1.01,2013-04-22 14:47:00,
2013-04-22 07:52:00,37.8,28.2,-100.00,North,-999,0.0,0.0,68,0.00,,,-99.99,FreeWX-Wi 1.01,2013-04-22 14:52:00,
2013-04-22 07:57:00,38.1,28.9,-100.00,North,-999,0.0,0.0,69,0.00,,,-99.99,FreeWX-Wi 1.01,2013-04-22 14:57:00,
2013-04-22 08:02:00,38.3,28.8,-100.00,North,-999,0.0,0.0,68,0.00,,,-99.99,FreeWX-Wi 1.01,2013-04-22 15:02:00,
2013-04-22 08:07:00,38.5,28.6,-100.00,North,-999,0.0,0.0,67,0.00,,,-99.99,FreeWX-Wi 1.01,2013-04-22 15:07:00,
2013-04-22 08:12:00,39.0,29.3,-100.00,North,-999,0.0,0.0,68,0.00,,,-99.99,FreeWX-Wi 1.01,2013-04-22 15:12:00,
2013-04-22 08:17:00,39.2,28.8,-100.00,North,-999,0.0,0.0,66,0.00,,,-99.99,FreeWX-Wi 1.01,2013-04-22 15:17:00,
2013-04-22 08:22:00,39.2,28.4,-100.00,North,-999,0.0,0.0,65,0.00,,,-99.99,FreeWX-Wi 1.01,2013-04-22 15:22:00,
2013-04-22 08:27:00,39.0,28.2,-100.00,North,-999,0.0,0.0,65,0.00,,,-99.99,FreeWX-Wi 1.01,2013-04-22 15:27:00,
2013-04-22 08:32:00,39.6,29.1,-100.00,North,-999,0.0,0.0,66,0.00,,,-99.99,FreeWX-Wi 1.01,2013-04-22 15:32:00,
2013-04-22 08:37:00,40.3,29.5,-100.00,North,-999,0.0,0.0,65,0.00,,,-99.99,FreeWX-Wi 1.01,2013-04-22 15:37:00,
2013-04-22 08:42:00,40.1,28.9,-100.00,North,-999,0.0,0.0,64,0.00,,,-99.99,FreeWX-Wi 1.01,2013-04-22 15:42:00,
2013-04-22 08:48:00,39.9,28.8,-100.00,North,-999,0.0,0.0,64,0.00,,,-99.99,FreeWX-Wi 1.01,2013-04-22 15:48:00,
2013-04-22 08:53:00,41.0,30.2,-100.00,North,-999,0.0,0.0,65,0.00,,,-99.99,FreeWX-Wi 1.01,2013-04-22 15:53:00,
2013-04-22 08:58:00,40.5,27.7,-100.00,North,-999,0.0,0.0,60,0.00,,,-99.99,FreeWX-Wi 1.01,2013-04-22 15:58:00,
2013-04-22 09:03:00,40.8,27.7,-100.00,North,-999,0.0,0.0,59,0.00,,,-99.99,FreeWX-Wi 1.01,2013-04-22 16:03:00,
2013-04-22 09:08:00,41.4,29.3,-100.00,North,-999,0.0,0.0,62,0.00,,,-99.99,FreeWX-Wi 1.01,2013-04-22 16:08:00,
2013-04-22 09:13:00,41.2,28.4,-100.00,North,-999,0.0,0.0,60,0.00,,,-99.99,FreeWX-Wi 1.01,2013-04-22 16:13:00,
2013-04-22 09:18:00,40.8,26.8,-100.00,North,-999,0.0,0.0,57,0.00,,,-99.99,FreeWX-Wi 1.01,2013-04-22 16:18:00,
2013-04-22 09:23:00,41.2,27.1,-100.00,North,-999,0.0,0.0,57,0.00,,,-99.99,FreeWX-Wi 1.01,2013-04-22 16:23:00,
2013-04-22 09:28:00,42.1,28.4,-100.00,North,-999,0.0,0.0,58,0.00,,,-99.99,FreeWX-Wi 1.01,2013-04-22 16:28:00,
2013-04-22 09:33:00,43.5,29.3,-100.00,North,-999,0.0,0.0,57,0.00,,,-99.99,FreeWX-Wi 1.01,2013-04-22 16:33:00,
2013-04-22 09:38:00,43.9,28.4,-100.00,North,-999,0.0,0.0,54,0.00,,,-99.99,FreeWX-Wi 1.01,2013-04-22 16:38:00,
2013-04-22 09:43:00,43.7,26.8,-100.00,North,-999,0.0,0.0,51,0.00,,,-99.99,FreeWX-Wi 1.01,2013-04-22 16:43:00,
2013-04-22 09:48:00,44.6,27.1,-100.00,North,-999,0.0,0.0,50,0.00,,,-99.99,FreeWX-Wi 1.01,2013-04-22 16:48:00,
2013-04-22 09:53:00,45.3,26.8,-100.00,North,-999,0.0,0.0,48,0.00,,,-99.99,FreeWX-Wi 1.01,2013-04-22 16:53:00,
2013-04-22 09:58:00,46.8,27.1,-100.00,North,-999,0.0,0.0,46,0.00,,,-99.99,FreeWX-Wi 1.01,2013-04-22 16:58:00,
2013-04-22 10:03:00,48.7,28.9,-100.00,North,-999,0.0,0.0,46,0.00,,,-99.99,FreeWX-Wi 1.01,2013-04-22 17:03:00,
2013-04-22 10:08:00,52.2,26.1,-100.00,North,-999,0.0,0.0,36,0.00,,,-99.99,FreeWX-Wi 1.01,2013-04-22 17:08:00,
2013-04-22 10:13:00,54.9,28.4,-100.00,North,-999,0.0,0.0,36,0.00,,,-99.99,FreeWX-Wi 1.01,2013-04-22 17:13:00,
2013-04-22 10:18:00,57.7,30.2,-100.00,North,-999,0.0,0.0,35,0.00,,,-99.99,FreeWX-Wi 1.01,2013-04-22 17:18:00,
2013-04-22 10:23:00,61.2,32.5,-100.00,North,-999,0.0,0.0,34,0.00,,,-99.99,FreeWX-Wi 1.01,2013-04-22 17:23:00,
2013-04-22 10:28:00,63.1,34.3,-100.00,North,-999,0.0,0.0,34,0.00,,,-99.99,FreeWX-Wi 1.01,2013-04-22 17:28:00,
2013-04-22 10:33:00,64.2,35.2,-100.00,North,-999,0.0,0.0,34,0.00,,,-99.99,FreeWX-Wi 1.01,2013-04-22 17:33:00,
2013-04-22 10:38:00,66.2,36.3,-100.00,North,-999,0.0,0.0,33,0.00,,,-99.99,FreeWX-Wi 1.01,2013-04-22 17:38:00,
2013-04-22 10:43:00,66.0,36.1,-100.00,North,-999,0.0,0.0,33,0.00,,,-99.99,FreeWX-Wi 1.01,2013-04-22 17:43:00,
2013-04-22 10:48:00,66.4,36.3,-100.00,North,-999,0.0,0.0,33,0.00,,,-99.99,FreeWX-Wi 1.01,2013-04-22 17:48:00,
2013-04-22 10:53:00,64.6,34.9,-100.00,North,-999,0.0,0.0,33,0.00,,,-99.99,FreeWX-Wi 1.01,2013-04-22 17:53:00,
2013-04-22 10:58:00,67.3,37.2,-100.00,North,-999,0.0,0.0,33,0.00,,,-99.99,FreeWX-Wi 1.01,2013-04-22 17:58:00,
2013-04-22 11:03:00,68.7,38.5,-100.00,North,-999,0.0,0.0,33,0.00,,,-99.99,FreeWX-Wi 1.01,2013-04-22 18:03:00,
2013-04-22 11:08:00,69.4,39.0,-100.00,North,-999,0.0,0.0,33,0.00,,,-99.99,FreeWX-Wi 1.01,2013-04-22 18:08:00,
2013-04-22 11:13:00,69.8,38.7,-100.00,North,-999,0.0,0.0,32,0.00,,,-99.99,FreeWX-Wi 1.01,2013-04-22 18:13:00,
2013-04-22 11:18:00,70.0,38.8,-100.00,North,-999,0.0,0.0,32,0.00,,,-99.99,FreeWX-Wi 1.01,2013-04-22 18:18:00,
2013-04-22 11:23:00,70.2,38.8,-100.00,North,-999,0.0,0.0,32,0.00,,,-99.99,FreeWX-Wi 1.01,2013-04-22 18:23:00,
2013-04-22 11:28:00,66.7,36.7,-100.00,North,-999,0.0,0.0,33,0.00,,,-99.99,FreeWX-Wi 1.01,2013-04-22 18:28:00,
2013-04-22 11:33:00,69.3,38.8,-100.00,North,-999,0.0,0.0,33,0.00,,,-99.99,FreeWX-Wi 1.01,2013-04-22 18:33:00,
2013-04-22 11:38:00,70.5,39.2,-100.00,North,-999,0.0,0.0,32,0.00,,,-99.99,FreeWX-Wi 1.01,2013-04-22 18:38:00,
2013-04-22 11:43:00,71.8,40.3,-100.00,North,-999,0.0,0.0,32,0.00,,,-99.99,FreeWX-Wi 1.01,2013-04-22 18:43:00,
2013-04-22 11:48:00,72.3,40.8,-100.00,North,-999,0.0,0.0,32,0.00,,,-99.99,FreeWX-Wi 1.01,2013-04-22 18:48:00,
2013-04-22 11:53:00,72.1,40.6,-100.00,North,-999,0.0,0.0,32,0.00,,,-99.99,FreeWX-Wi 1.01,2013-04-22 18:53:00,
2013-04-22 11:58:00,72.7,41.2,-100.00,North,-999,0.0,0.0,32,0.00,,,-99.99,FreeWX-Wi 1.01,2013-04-22 18:58:00,
2013-04-22 12:03:00,72.3,40.8,-100.00,North,-999,0.0,0.0,32,0.00,,,-99.99,FreeWX-Wi 1.01,2013-04-22 19:03:00,
2013-04-22 12:08:00,72.7,41.2,-100.00,North,-999,0.0,0.0,32,0.00,,,-99.99,FreeWX-Wi 1.01,2013-04-22 19:08:00,
2013-04-22 12:13:00,72.5,41.0,-100.00,North,-999,0.0,0.0,32,0.00,,,-99.99,FreeWX-Wi 1.01,2013-04-22 19:13:00,
2013-04-22 12:18:00,72.7,41.2,-100.00,North,-999,0.0,0.0,32,0.00,,,-99.99,FreeWX-Wi 1.01,2013-04-22 19:18:00,
2013-04-22 12:23:00,73.6,41.0,-100.00,North,-999,0.0,0.0,31,0.00,,,-99.99,FreeWX-Wi 1.01,2013-04-22 19:23:00,
2013-04-22 12:28:00,73.0,41.4,-100.00,North,-999,0.0,0.0,32,0.00,,,-99.99,FreeWX-Wi 1.01,2013-04-22 19:28:00,
2013-04-22 12:33:00,72.9,41.2,-100.00,North,-999,0.0,0.0,32,0.00,,,-99.99,FreeWX-Wi 1.01,2013-04-22 19:33:00,
2013-04-22 12:38:00,73.8,41.2,-100.00,North,-999,0.0,0.0,31,0.00,,,-99.99,FreeWX-Wi 1.01,2013-04-22 19:38:00,
2013-04-22 12:43:00,72.9,41.2,-100.00,North,-999,0.0,0.0,32,0.00,,,-99.99,FreeWX-Wi 1.01,2013-04-22 19:43:00,
2013-04-22 12:48:00,74.3,41.7,-100.00,North,-999,0.0,0.0,31,0.00,,,-99.99,FreeWX-Wi 1.01,2013-04-22 19:48:00,
2013-04-22 12:53:00,73.9,41.4,-100.00,North,-999,0.0,0.0,31,0.00,,,-99.99,FreeWX-Wi 1.01,2013-04-22 19:53:00,
2013-04-22 12:58:00,74.1,41.5,-100.00,North,-999,0.0,0.0,31,0.00,,,-99.99,FreeWX-Wi 1.01,2013-04-22 19:58:00,
2013-04-22 13:03:00,70.5,39.2,-100.00,North,-999,0.0,0.0,32,0.00,,,-99.99,FreeWX-Wi 1.01,2013-04-22 20:03:00,
2013-04-22 13:08:00,71.6,40.1,-100.00,North,-999,0.0,0.0,32,0.00,,,-99.99,FreeWX-Wi 1.01,2013-04-22 20:08:00,
2013-04-22 13:13:00,69.1,38.8,-100.00,North,-999,0.0,0.0,33,0.00,,,-99.99,FreeWX-Wi 1.01,2013-04-22 20:13:00,
2013-04-22 13:18:00,68.7,38.5,-100.00,North,-999,0.0,0.0,33,0.00,,,-99.99,FreeWX-Wi 1.01,2013-04-22 20:18:00,
2013-04-22 13:23:00,72.0,40.5,-100.00,North,-999,0.0,0.0,32,0.00,,,-99.99,FreeWX-Wi 1.01,2013-04-22 20:23:00,
2013-04-22 13:28:00,74.7,42.1,-100.00,North,-999,0.0,0.0,31,0.00,,,-99.99,FreeWX-Wi 1.01,2013-04-22 20:28:00,
2013-04-22 13:33:00,75.0,42.3,-100.00,North,-999,0.0,0.0,31,0.00,,,-99.99,FreeWX-Wi 1.01,2013-04-22 20:33:00,
2013-04-22 13:38:00,76.3,43.3,-100.00,North,-999,0.0,0.0,31,0.00,,,-99.99,FreeWX-Wi 1.01,2013-04-22 20:38:00,
2013-04-22 13:43:00,77.5,44.4,-100.00,North,-999,0.0,0.0,31,0.00,,,-99.99,FreeWX-Wi 1.01,2013-04-22 20:43:00,
2013-04-22 13:48:00,74.8,42.1,-100.00,North,-999,0.0,0.0,31,0.00,,,-99.99,FreeWX-Wi 1.01,2013-04-22 20:48:00,
2013-04-22 13:53:00,76.6,43.7,-100.00,North,-999,0.0,0.0,31,0.00,,,-99.99,FreeWX-Wi 1.01,2013-04-22 20:53:00,
2013-04-22 13:58:00,76.5,43.5,-100.00,North,-999,0.0,0.0,31,0.00,,,-99.99,FreeWX-Wi 1.01,2013-04-22 20:58:00,
2013-04-22 14:03:00,79.2,45.0,-100.00,North,-999,0.0,0.0,30,0.00,,,-99.99,FreeWX-Wi 1.01,2013-04-22 21:03:00,
2013-04-22 14:08:00,79.9,45.7,-100.00,North,-999,0.0,0.0,30,0.00,,,-99.99,FreeWX-Wi 1.01,2013-04-22 21:08:00,
2013-04-22 14:13:00,77.9,44.8,-100.00,North,-999,0.0,0.0,31,0.00,,,-99.99,FreeWX-Wi 1.01,2013-04-22 21:13:00,
2013-04-22 14:18:00,79.0,45.0,-100.00,North,-999,0.0,0.0,30,0.00,,,-99.99,FreeWX-Wi 1.01,2013-04-22 21:18:00,
2013-04-22 14:23:00,79.2,45.0,-100.00,North,-999,0.0,0.0,30,0.00,,,-99.99,FreeWX-Wi 1.01,2013-04-22 21:23:00,
2013-04-22 14:28:00,80.2,46.0,-100.00,North,-999,0.0,0.0,30,0.00,,,-99.99,FreeWX-Wi 1.01,2013-04-22 21:28:00,
2013-04-22 14:33:00,80.2,46.0,-100.00,North,-999,0.0,0.0,30,0.00,,,-99.99,FreeWX-Wi 1.01,2013-04-22 21:33:00,
2013-04-22 14:38:00,79.0,45.0,-100.00,North,-999,0.0,0.0,30,0.00,,,-99.99,FreeWX-Wi 1.01,2013-04-22 21:38:00,
2013-04-22 14:43:00,76.1,43.3,-100.00,North,-999,0.0,0.0,31,0.00,,,-99.99,FreeWX-Wi 1.01,2013-04-22 21:43:00,
2013-04-22 14:49:00,79.0,45.0,-100.00,North,-999,0.0,0.0,30,0.00,,,-99.99,FreeWX-Wi 1.01,2013-04-22 21:49:00,
2013-04-22 14:54:00,80.8,46.4,-100.00,North,-999,0.0,0.0,30,0.00,,,-99.99,FreeWX-Wi 1.01,2013-04-22 21:54:00,
2013-04-22 14:59:00,81.5,47.1,-100.00,North,-999,0.0,0.0,30,0.00,,,-99.99,FreeWX-Wi 1.01,2013-04-22 21:59:00,
2013-04-22 15:04:00,81.9,47.3,-100.00,North,-999,0.0,0.0,30,0.00,,,-99.99,FreeWX-Wi 1.01,2013-04-22 22:04:00,
2013-04-22 15:09:00,80.8,46.4,-100.00,North,-999,0.0,0.0,30,0.00,,,-99.99,FreeWX-Wi 1.01,2013-04-22 22:09:00,
2013-04-22 15:14:00,81.5,47.1,-100.00,North,-999,0.0,0.0,30,0.00,,,-99.99,FreeWX-Wi 1.01,2013-04-22 22:14:00,
2013-04-22 15:19:00,81.5,47.1,-100.00,North,-999,0.0,0.0,30,0.00,,,-99.99,FreeWX-Wi 1.01,2013-04-22 22:19:00,
2013-04-22 15:24:00,81.3,46.9,-100.00,North,-999,0.0,0.0,30,0.00,,,-99.99,FreeWX-Wi 1.01,2013-04-22 22:24:00,
2013-04-22 15:29:00,80.1,45.9,-100.00,North,-999,0.0,0.0,30,0.00,,,-99.99,FreeWX-Wi 1.01,2013-04-22 22:29:00,
2013-04-22 15:34:00,80.2,46.0,-100.00,North,-999,0.0,0.0,30,0.00,,,-99.99,FreeWX-Wi 1.01,2013-04-22 22:34:00,
2013-04-22 15:39:00,79.2,45.0,-100.00,North,-999,0.0,0.0,30,0.00,,,-99.99,FreeWX-Wi 1.01,2013-04-22 22:39:00,
2013-04-22 15:44:00,78.3,45.1,-100.00,North,-999,0.0,0.0,31,0.00,,,-99.99,FreeWX-Wi 1.01,2013-04-22 22:44:00,
2013-04-22 15:49:00,79.2,45.0,-100.00,North,-999,0.0,0.0,30,0.00,,,-99.99,FreeWX-Wi 1.01,2013-04-22 22:49:00,
2013-04-22 15:54:00,79.3,45.1,-100.00,North,-999,0.0,0.0,30,0.00,,,-99.99,FreeWX-Wi 1.01,2013-04-22 22:54:00,
2013-04-22 15:59:00,78.6,45.5,-100.00,North,-999,0.0,0.0,31,0.00,,,-99.99,FreeWX-Wi 1.01,2013-04-22 22:59:00,
2013-04-22 16:04:00,78.4,45.3,-100.00,North,-999,0.0,0.0,31,0.00,,,-99.99,FreeWX-Wi 1.01,2013-04-22 23:04:00,
2013-04-22 16:09:00,72.0,40.5,-100.00,North,-999,0.0,0.0,32,0.00,,,-99.99,FreeWX-Wi 1.01,2013-04-22 23:09:00,
2013-04-22 16:20:00,72.0,42.1,-100.00,North,-999,0.0,0.0,34,0.00,,,-99.99,FreeWX-Wi 1.01,2013-04-22 23:20:00,
2013-04-22 16:50:00,72.0,42.8,-100.00,North,-999,0.0,0.0,35,0.00,,,-99.99,FreeWX-Wi 1.01,2013-04-22 23:50:00,
2013-04-22 17:10:00,72.0,42.8,-100.00,North,-999,0.0,0.0,35,0.00,,,-99.99,FreeWX-Wi 1.01,2013-04-23 00:10:00,
2013-04-22 19:15:00,53.6,27.3,-100.00,North,-999,0.0,0.0,36,0.00,,,-99.99,FreeWX-Wi 1.01,2013-04-23 02:15:00,
2013-04-22 23:30:00,53.6,29.3,-100.00,North,-999,0.0,0.0,39,0.00,,,-99.99,FreeWX-Wi 1.01,2013-04-23 06:30:00,